Time;durP1;ratioP1;P1;durP2;ratioP2;P2;SDS_P1;SDS_P2;PMS_P1;PMS_P2;Temp;Humidity;BMP_temperature;BMP_pressure;BME280_temperature;BME280_humidity;BME280_pressure;Samples;Min_cycle;Max_cycle;Signal;HPM_P1;HPM_P2
2024/01/19 00:02:10;;;;;;;2.60;0.90;;;15.80;16.30;;;;;;7406069;19;19914;-74
2024/01/19 00:04:36;;;;;;;2.95;0.63;;;15.80;16.90;;;;;;7405478;19;19907;-73
2024/01/19 00:07:01;;;;;;;1.65;0.65;;;15.70;16.60;;;;;;7406319;19;19925;-74
2024/01/19 00:09:29;;;;;;;1.40;0.43;;;15.70;17.00;;;;;;7406968;19;20357;-74
2024/01/19 00:11:54;;;;;;;1.52;0.60;;;15.70;17.20;;;;;;7405920;19;19915;-75
2024/01/19 00:14:22;;;;;;;1.48;0.80;;;15.70;17.30;;;;;;7403166;19;20708;-73
2024/01/19 00:16:47;;;;;;;2.17;0.65;;;15.70;17.40;;;;;;7408063;19;19937;-73
2024/01/19 00:19:13;;;;;;;1.85;0.75;;;15.60;17.60;;;;;;7405027;19;19914;-74
2024/01/19 00:21:46;;;;;;;2.97;0.93;;;15.50;17.90;;;;;;7405937;19;19922;-73
2024/01/19 00:24:15;;;;;;;4.40;0.63;;;15.50;18.00;;;;;;7407228;19;19918;-74
2024/01/19 00:26:44;;;;;;;1.95;0.77;;;15.50;18.00;;;;;;7405980;19;19933;-74
2024/01/19 00:29:10;;;;;;;1.20;0.32;;;15.50;18.10;;;;;;7407076;19;19927;-73
2024/01/19 00:31:37;;;;;;;1.83;1.00;;;15.50;18.20;;;;;;7406668;19;19930;-75
2024/01/19 00:34:02;;;;;;;1.88;0.35;;;15.40;18.50;;;;;;7402998;19;20234;-73
2024/01/19 00:36:28;;;;;;;2.45;0.88;;;15.30;18.80;;;;;;7406736;19;19915;-74
2024/01/19 00:38:54;;;;;;;2.45;0.85;;;15.30;18.80;;;;;;7409297;19;19914;-73
2024/01/19 00:41:20;;;;;;;4.80;1.45;;;15.30;19.00;;;;;;7404889;19;19914;-74
2024/01/19 00:43:46;;;;;;;4.60;0.80;;;15.30;19.20;;;;;;7407323;19;19995;-73
2024/01/19 00:46:12;;;;;;;1.98;0.60;;;15.20;19.20;;;;;;7402732;19;19928;-74
2024/01/19 00:48:39;;;;;;;2.53;0.80;;;15.20;19.70;;;;;;7384397;19;20367;-74
2024/01/19 00:51:06;;;;;;;1.70;0.57;;;15.20;19.40;;;;;;7401079;19;19927;-74
2024/01/19 00:53:31;;;;;;;2.03;0.60;;;15.20;19.70;;;;;;7407467;19;19918;-73
2024/01/19 00:55:57;;;;;;;2.42;0.80;;;15.20;19.60;;;;;;7404117;19;19918;-74
2024/01/19 00:58:23;;;;;;;1.60;0.80;;;15.20;19.60;;;;;;7402066;19;19934;-74
2024/01/19 01:00:49;;;;;;;4.05;1.25;;;15.20;19.70;;;;;;7404110;19;19930;-73
2024/01/19 01:03:25;;;;;;;2.25;0.90;;;15.20;19.80;;;;;;7404742;19;20657;-74
2024/01/19 01:05:58;;;;;;;1.40;0.80;;;15.10;19.90;;;;;;7404995;19;19915;-74
2024/01/19 01:08:25;;;;;;;2.38;0.70;;;15.10;20.00;;;;;;7404297;19;20482;-73
2024/01/19 01:10:51;;;;;;;2.28;0.88;;;15.10;20.20;;;;;;7405229;19;19915;-74
2024/01/19 01:13:17;;;;;;;1.98;0.60;;;15.00;20.30;;;;;;7402922;19;19919;-74
2024/01/19 01:15:43;;;;;;;2.70;0.70;;;15.10;20.20;;;;;;7396897;19;20358;-74
2024/01/19 01:18:09;;;;;;;2.47;0.95;;;15.10;19.90;;;;;;7403660;19;19946;-73
2024/01/19 01:20:36;;;;;;;1.75;0.73;;;15.10;19.90;;;;;;7402544;19;19915;-73
2024/01/19 01:23:01;;;;;;;1.85;0.73;;;15.10;20.10;;;;;;7403709;19;19930;-74
2024/01/19 01:25:27;;;;;;;1.90;0.90;;;15.00;20.20;;;;;;7401800;19;19922;-73
2024/01/19 01:27:53;;;;;;;2.35;0.80;;;15.00;20.20;;;;;;7401037;19;20391;-73
2024/01/19 01:30:19;;;;;;;3.63;0.82;;;15.00;20.30;;;;;;7381046;19;19918;-73
2024/01/19 01:32:44;;;;;;;1.88;0.85;;;15.00;20.30;;;;;;7403222;19;19928;-74
2024/01/19 01:35:10;;;;;;;2.47;1.00;;;15.00;20.20;;;;;;7403122;19;19930;-73
2024/01/19 01:37:36;;;;;;;2.50;0.65;;;15.10;20.10;;;;;;7406415;19;19922;-74
2024/01/19 01:40:04;;;;;;;1.80;0.70;;;15.10;20.00;;;;;;7401104;19;20425;-73
2024/01/19 01:42:30;;;;;;;2.35;0.80;;;15.10;19.40;;;;;;7401576;19;19926;-74
2024/01/19 01:44:58;;;;;;;1.48;0.80;;;15.20;18.90;;;;;;7405085;19;20362;-74
2024/01/19 01:47:24;;;;;;;1.52;0.70;;;15.30;18.70;;;;;;7403618;19;20346;-74
2024/01/19 01:49:49;;;;;;;2.00;0.88;;;15.30;18.60;;;;;;7404692;19;19914;-73
2024/01/19 01:52:15;;;;;;;1.75;0.75;;;15.30;18.60;;;;;;7401078;19;19915;-74
2024/01/19 01:54:41;;;;;;;3.67;0.90;;;15.20;18.50;;;;;;7406116;19;20251;-73
2024/01/19 01:57:07;;;;;;;1.75;0.82;;;15.30;18.70;;;;;;7403079;19;19907;-73
2024/01/19 01:59:33;;;;;;;2.15;1.00;;;15.20;18.90;;;;;;7404255;19;19915;-73
2024/01/19 02:01:59;;;;;;;3.28;0.85;;;15.20;19.00;;;;;;7401506;19;20631;-73
2024/01/19 02:04:27;;;;;;;1.27;0.43;;;15.10;19.30;;;;;;7400363;19;19925;-72
2024/01/19 02:06:53;;;;;;;1.92;0.85;;;15.10;19.20;;;;;;7402169;19;20440;-73
2024/01/19 02:09:19;;;;;;;2.22;0.77;;;15.10;19.60;;;;;;7402777;19;19907;-73
2024/01/19 02:11:44;;;;;;;3.88;0.90;;;15.00;19.80;;;;;;7403034;19;19919;-73
2024/01/19 02:14:10;;;;;;;3.00;0.95;;;14.90;20.20;;;;;;7399298;19;19918;-72
2024/01/19 02:16:36;;;;;;;2.75;0.80;;;14.80;20.60;;;;;;7402746;19;19929;-72
2024/01/19 02:19:02;;;;;;;1.60;0.50;;;14.80;21.10;;;;;;7401868;19;20308;-73
2024/01/19 02:21:30;;;;;;;2.35;1.00;;;14.70;21.10;;;;;;7402073;19;19926;-72
2024/01/19 02:24:01;;;;;;;3.17;0.50;;;14.60;21.50;;;;;;7404014;19;19921;-73
2024/01/19 02:26:32;;;;;;;1.65;0.70;;;14.60;21.60;;;;;;7382576;19;19963;-73
2024/01/19 02:28:58;;;;;;;1.35;0.60;;;14.50;22.20;;;;;;7379166;19;20300;-73
2024/01/19 02:31:24;;;;;;;3.17;0.70;;;14.40;22.10;;;;;;7400274;19;19922;-73
2024/01/19 02:33:50;;;;;;;1.33;0.55;;;14.30;22.10;;;;;;7403084;19;20280;-72
2024/01/19 02:36:16;;;;;;;2.30;0.60;;;14.30;22.40;;;;;;7402643;19;19919;-73
2024/01/19 02:38:41;;;;;;;1.08;0.50;;;14.30;22.80;;;;;;7403821;19;20002;-73
2024/01/19 02:41:07;;;;;;;1.88;0.43;;;14.20;23.00;;;;;;7402618;19;20309;-72
2024/01/19 02:43:33;;;;;;;3.25;0.68;;;14.20;23.20;;;;;;7401458;19;20246;-73
2024/01/19 02:45:59;;;;;;;3.45;0.57;;;14.20;23.30;;;;;;7401078;19;19914;-73
2024/01/19 02:48:24;;;;;;;1.45;0.93;;;14.20;23.70;;;;;;7402542;19;20225;-73
2024/01/19 02:50:51;;;;;;;1.92;0.60;;;14.20;22.70;;;;;;7402655;19;19933;-72
2024/01/19 02:53:17;;;;;;;1.85;0.50;;;14.20;22.50;;;;;;7401583;19;19982;-72
2024/01/19 02:55:42;;;;;;;1.35;0.65;;;14.20;22.80;;;;;;7400785;19;19922;-73
2024/01/19 02:58:09;;;;;;;1.63;0.57;;;14.20;22.50;;;;;;7399943;19;20375;-73
2024/01/19 03:00:35;;;;;;;1.08;0.70;;;14.20;22.30;;;;;;7401052;19;19938;-73
2024/01/19 03:03:01;;;;;;;1.98;0.73;;;14.20;22.00;;;;;;7401768;19;19915;-72
2024/01/19 03:05:26;;;;;;;1.77;0.60;;;14.30;22.10;;;;;;7397309;19;19911;-73
2024/01/19 03:07:52;;;;;;;1.50;0.73;;;14.40;21.70;;;;;;7399752;19;20019;-72
2024/01/19 03:10:18;;;;;;;1.50;0.55;;;14.30;21.90;;;;;;7399822;19;20220;-73
2024/01/19 03:12:43;;;;;;;1.52;0.65;;;14.30;21.90;;;;;;7400529;19;19986;-72
2024/01/19 03:15:09;;;;;;;2.03;1.02;;;14.40;22.00;;;;;;7400148;19;19922;-73
2024/01/19 03:17:35;;;;;;;1.55;1.00;;;14.40;22.00;;;;;;7402396;19;19922;-73
2024/01/19 03:20:01;;;;;;;1.48;0.85;;;14.30;22.20;;;;;;7401106;19;20335;-72
2024/01/19 03:22:28;;;;;;;3.80;0.73;;;14.30;22.50;;;;;;7400089;19;20345;-73
2024/01/19 03:24:54;;;;;;;;;;;14.40;22.80;;;;;;7402597;19;20323;-72
2024/01/19 03:27:19;;;;;;;1.67;0.80;;;14.40;22.90;;;;;;7400942;19;19918;-72
2024/01/19 03:29:47;;;;;;;1.08;0.60;;;14.30;23.20;;;;;;7402674;19;20678;-73
2024/01/19 03:32:13;;;;;;;2.90;0.80;;;14.30;23.40;;;;;;7397701;19;19935;-73
2024/01/19 03:34:39;;;;;;;2.17;0.82;;;14.30;23.60;;;;;;7400183;19;19915;-73
2024/01/19 03:37:05;;;;;;;2.55;0.70;;;14.30;23.80;;;;;;7402179;19;19949;-73
2024/01/19 03:39:32;;;;;;;2.10;0.65;;;14.30;24.20;;;;;;7404787;19;19926;-73
2024/01/19 03:41:58;;;;;;;2.17;0.82;;;14.20;24.70;;;;;;7402824;19;19969;-73
2024/01/19 03:44:23;;;;;;;3.47;0.50;;;14.20;24.90;;;;;;7401623;19;19982;-73
2024/01/19 03:46:50;;;;;;;2.15;1.05;;;14.10;25.50;;;;;;7399944;19;19919;-72
2024/01/19 03:49:16;;;;;;;3.40;1.05;;;14.00;26.10;;;;;;7399422;19;19915;-74
2024/01/19 03:52:02;;;;;;;4.20;1.70;;;13.90;26.60;;;;;;7400368;19;19922;-73
2024/01/19 03:54:28;;;;;;;2.55;1.20;;;13.90;27.20;;;;;;7400736;19;20006;-74
2024/01/19 03:56:55;;;;;;;5.30;2.00;;;13.80;27.50;;;;;;7402805;19;19918;-72
2024/01/19 03:59:21;;;;;;;4.82;1.05;;;13.80;27.60;;;;;;7399411;19;19946;-73
2024/01/19 04:01:47;;;;;;;4.47;2.00;;;13.80;28.00;;;;;;7400681;19;20370;-73
2024/01/19 04:04:13;;;;;;;3.92;1.42;;;13.80;28.20;;;;;;7399482;19;20439;-73
2024/01/19 04:06:39;;;;;;;3.53;1.45;;;13.80;28.30;;;;;;7402349;19;19915;-73
2024/01/19 04:09:06;;;;;;;3.60;1.40;;;13.80;28.60;;;;;;7398205;19;19917;-73
2024/01/19 04:11:34;;;;;;;3.90;1.50;;;13.80;28.70;;;;;;7402200;19;19931;-73
2024/01/19 04:13:59;;;;;;;6.60;1.80;;;13.80;29.20;;;;;;7397408;19;20702;-73
2024/01/19 04:16:25;;;;;;;5.80;1.83;;;13.80;29.50;;;;;;7397806;19;19922;-72
2024/01/19 04:18:51;;;;;;;5.47;2.10;;;13.90;31.50;;;;;;7398544;19;19926;-73
2024/01/19 04:21:16;;;;;;;4.80;2.17;;;13.80;34.70;;;;;;7396965;19;19929;-73
2024/01/19 04:23:44;;;;;;;6.32;2.00;;;13.90;36.40;;;;;;7397199;19;20393;-72
2024/01/19 04:26:10;;;;;;;11.23;2.20;;;13.90;42.10;;;;;;7396753;19;19947;-72
2024/01/19 04:28:36;;;;;;;10.35;2.30;;;13.90;51.00;;;;;;7398817;19;19922;-73
2024/01/19 04:31:02;;;;;;;12.32;1.90;;;13.90;58.60;;;;;;7395948;19;19938;-72
2024/01/19 04:33:28;;;;;;;10.57;2.22;;;13.90;66.60;;;;;;7399582;19;19917;-72
2024/01/19 04:35:53;;;;;;;18.50;2.80;;;13.80;73.30;;;;;;7400891;19;19907;-73
2024/01/19 04:38:19;;;;;;;14.13;1.95;;;13.70;80.30;;;;;;7395785;19;20593;-72
2024/01/19 04:40:45;;;;;;;19.42;2.70;;;13.60;84.70;;;;;;7396755;19;19910;-73
2024/01/19 04:43:11;;;;;;;12.60;2.30;;;13.50;87.80;;;;;;7397040;19;19923;-73
2024/01/19 04:45:37;;;;;;;15.40;2.53;;;13.30;90.40;;;;;;7406575;19;19931;-72
2024/01/19 04:48:03;;;;;;;16.73;2.03;;;13.30;91.40;;;;;;7403319;19;19943;-73
2024/01/19 04:50:29;;;;;;;16.40;2.95;;;13.20;91.80;;;;;;7403495;19;19931;-73
2024/01/19 04:52:55;;;;;;;14.95;2.15;;;13.00;93.00;;;;;;7406130;19;19915;-72
2024/01/19 04:55:20;;;;;;;12.38;2.17;;;12.90;94.10;;;;;;7402388;19;19922;-72
2024/01/19 04:57:46;;;;;;;17.30;2.83;;;12.90;94.60;;;;;;7404950;19;19921;-72
2024/01/19 05:00:13;;;;;;;15.13;2.22;;;12.80;95.10;;;;;;7403873;19;20296;-73
2024/01/19 05:02:39;;;;;;;12.82;2.53;;;12.80;95.60;;;;;;7405082;19;19990;-71
2024/01/19 05:05:05;;;;;;;15.68;2.08;;;12.80;95.90;;;;;;7400992;19;19923;-73
2024/01/19 05:07:31;;;;;;;16.10;2.33;;;12.90;95.90;;;;;;7404903;19;19930;-72
2024/01/19 05:09:58;;;;;;;14.25;2.17;;;12.90;95.70;;;;;;7404740;19;19911;-73
2024/01/19 05:12:24;;;;;;;;;;;12.80;95.10;;;;;;7404454;19;19930;-73
2024/01/19 05:14:49;;;;;;;11.35;1.85;;;12.60;96.20;;;;;;7403559;19;20275;-73
2024/01/19 05:17:15;;;;;;;12.13;2.35;;;12.40;98.20;;;;;;7401562;19;19919;-73
2024/01/19 05:19:41;;;;;;;15.07;2.63;;;12.30;99.60;;;;;;7405166;19;19930;-73
2024/01/19 05:22:07;;;;;;;15.50;2.13;;;12.20;99.90;;;;;;7402046;19;19910;-72
2024/01/19 05:24:33;;;;;;;12.85;1.80;;;12.20;99.90;;;;;;7403833;19;20644;-73
2024/01/19 05:26:59;;;;;;;19.15;2.05;;;12.00;99.90;;;;;;7404188;19;19930;-73
2024/01/19 05:29:25;;;;;;;12.23;2.03;;;12.00;99.90;;;;;;7401618;19;19922;-74
2024/01/19 05:31:51;;;;;;;14.95;2.38;;;12.00;99.90;;;;;;7405231;19;19914;-74
2024/01/19 05:34:17;;;;;;;16.38;2.28;;;11.80;99.90;;;;;;7404245;19;19946;-73
2024/01/19 05:36:42;;;;;;;14.60;2.88;;;11.80;99.90;;;;;;7405908;19;19929;-74
2024/01/19 05:39:08;;;;;;;11.38;1.65;;;11.70;99.90;;;;;;7402929;19;19926;-74
2024/01/19 05:41:34;;;;;;;16.45;2.00;;;11.70;99.90;;;;;;7403434;19;19927;-74
2024/01/19 05:44:00;;;;;;;15.20;2.35;;;11.70;99.90;;;;;;7403156;19;19934;-73
2024/01/19 05:46:26;;;;;;;12.95;1.92;;;11.60;99.90;;;;;;7404399;19;19919;-74
2024/01/19 05:48:52;;;;;;;14.45;2.45;;;11.70;99.90;;;;;;7404606;19;19929;-73
2024/01/19 05:51:18;;;;;;;9.57;1.77;;;11.60;99.90;;;;;;7403939;19;19914;-74
2024/01/19 05:53:44;;;;;;;16.65;2.30;;;11.70;99.90;;;;;;7405397;19;20031;-74
2024/01/19 05:56:10;;;;;;;9.10;1.75;;;11.50;99.90;;;;;;7399238;19;19926;-74
2024/01/19 05:58:36;;;;;;;14.50;2.08;;;11.60;99.90;;;;;;7402935;19;19915;-73
2024/01/19 06:01:04;;;;;;;11.65;1.77;;;11.50;99.90;;;;;;7405085;19;19926;-74
2024/01/19 06:03:33;;;;;;;12.60;2.60;;;11.30;99.90;;;;;;7405425;19;19918;-73
2024/01/19 06:05:58;;;;;;;13.50;2.78;;;11.30;99.90;;;;;;7402306;19;19955;-73
2024/01/19 06:08:24;;;;;;;9.25;1.60;;;11.30;99.90;;;;;;7402332;19;19919;-74
2024/01/19 06:10:50;;;;;;;13.02;2.00;;;11.30;99.90;;;;;;7405611;19;19930;-73
2024/01/19 06:13:15;;;;;;;11.00;2.17;;;11.30;99.90;;;;;;7402066;19;19974;-76
2024/01/19 06:15:41;;;;;;;12.50;2.47;;;11.30;99.90;;;;;;7405537;19;19922;-74
2024/01/19 06:18:07;;;;;;;17.77;3.30;;;11.30;99.90;;;;;;7383883;19;19923;-74
2024/01/19 06:20:34;;;;;;;13.85;1.70;;;11.20;99.90;;;;;;7403860;19;20322;-74
2024/01/19 06:23:00;;;;;;;11.15;1.92;;;11.20;99.90;;;;;;7404787;19;20282;-74
2024/01/19 06:25:26;;;;;;;13.13;2.35;;;11.20;99.90;;;;;;7400793;19;19910;-74
2024/01/19 06:27:54;;;;;;;16.90;2.50;;;11.30;99.90;;;;;;7401783;19;19906;-74
2024/01/19 06:30:20;;;;;;;13.77;2.90;;;11.30;99.90;;;;;;7401552;19;19929;-74
2024/01/19 06:32:46;;;;;;;9.50;1.58;;;11.20;99.90;;;;;;7406625;19;20258;-74
2024/01/19 06:35:11;;;;;;;11.57;1.80;;;11.10;99.90;;;;;;7400428;19;19919;-73
2024/01/19 06:37:39;;;;;;;10.55;2.72;;;11.20;99.90;;;;;;7402202;19;19918;-73
2024/01/19 06:40:08;;;;;;;15.00;2.00;;;11.10;99.90;;;;;;7406753;19;19930;-74
2024/01/19 06:42:34;;;;;;;12.77;2.22;;;11.10;99.90;;;;;;7405516;19;19938;-73
2024/01/19 06:45:00;;;;;;;14.40;3.38;;;11.10;99.90;;;;;;7404838;19;19975;-75
2024/01/19 06:47:26;;;;;;;8.63;2.00;;;11.20;99.90;;;;;;7402275;19;20275;-74
2024/01/19 06:49:52;;;;;;;11.43;2.22;;;11.20;99.90;;;;;;7401947;19;19910;-73
2024/01/19 06:52:19;;;;;;;12.35;2.15;;;11.10;99.90;;;;;;7400539;19;20288;-74
2024/01/19 06:54:45;;;;;;;22.98;2.85;;;11.10;99.90;;;;;;7405365;19;19922;-74
2024/01/19 06:57:11;;;;;;;16.75;2.25;;;11.10;99.90;;;;;;7403813;19;19942;-75
2024/01/19 06:59:37;;;;;;;13.85;1.83;;;11.10;99.90;;;;;;7403173;19;19915;-73
2024/01/19 07:02:02;;;;;;;14.75;2.45;;;11.00;99.90;;;;;;7402454;19;19914;-74
2024/01/19 07:04:29;;;;;;;11.82;1.92;;;11.10;99.90;;;;;;7403236;19;19930;-76
2024/01/19 07:06:54;;;;;;;15.48;2.22;;;11.10;99.90;;;;;;7399221;19;19922;-74
2024/01/19 07:09:20;;;;;;;14.73;2.40;;;11.00;99.90;;;;;;7403342;19;19922;-73
2024/01/19 07:11:46;;;;;;;14.90;2.53;;;11.00;99.90;;;;;;7401817;19;19926;-73
2024/01/19 07:14:12;;;;;;;12.15;2.03;;;11.00;99.90;;;;;;7399674;19;19918;-73
2024/01/19 07:16:43;;;;;;;13.70;2.15;;;10.90;99.90;;;;;;7399205;19;19946;-73
2024/01/19 07:19:09;;;;;;;13.23;2.60;;;10.90;99.90;;;;;;7398325;19;19935;-73
2024/01/19 07:21:40;;;;;;;11.88;1.90;;;10.80;99.90;;;;;;7400494;19;20019;-74
2024/01/19 07:24:11;;;;;;;16.83;2.80;;;10.90;99.90;;;;;;7398923;19;19938;-74
2024/01/19 07:26:37;;;;;;;17.42;2.50;;;10.90;99.90;;;;;;7400721;19;19942;-74
2024/01/19 07:29:07;;;;;;;14.27;2.92;;;10.90;99.90;;;;;;7398747;19;19914;-74
2024/01/19 07:31:34;;;;;;;11.10;2.20;;;10.90;99.90;;;;;;7400552;19;19947;-75
2024/01/19 07:34:01;;;;;;;15.20;2.63;;;10.80;99.90;;;;;;7402297;19;19923;-75
2024/01/19 07:36:27;;;;;;;9.95;1.88;;;10.90;99.90;;;;;;7402007;19;19941;-76
2024/01/19 07:38:54;;;;;;;12.27;2.35;;;11.00;99.90;;;;;;7400419;19;19922;-76
2024/01/19 07:41:20;;;;;;;16.90;3.67;;;11.00;99.90;;;;;;7399675;19;20461;-75
2024/01/19 07:43:46;;;;;;;13.52;2.85;;;11.00;99.90;;;;;;7402065;19;20013;-74
2024/01/19 07:46:14;;;;;;;10.15;1.83;;;10.90;99.90;;;;;;7399789;19;20300;-74
2024/01/19 07:48:43;;;;;;;19.20;2.47;;;11.00;99.90;;;;;;7404818;19;20355;-74
2024/01/19 07:51:09;;;;;;;15.48;2.17;;;10.90;99.90;;;;;;7377895;19;20317;-75
2024/01/19 07:53:35;;;;;;;12.30;2.00;;;11.10;99.90;;;;;;7401007;19;20015;-74
2024/01/19 07:56:01;;;;;;;24.52;2.95;;;11.10;99.90;;;;;;7402286;19;19938;-74
2024/01/19 07:58:27;;;;;;;18.92;2.58;;;11.10;99.90;;;;;;7400725;19;19918;-74
2024/01/19 08:00:53;;;;;;;15.00;2.10;;;11.00;99.90;;;;;;7403503;19;20002;-75
2024/01/19 08:03:20;;;;;;;17.52;2.35;;;11.10;99.90;;;;;;7402080;19;19923;-75
2024/01/19 08:05:47;;;;;;;15.40;2.55;;;10.90;99.90;;;;;;7402426;19;19922;-75
2024/01/19 08:08:15;;;;;;;16.98;2.53;;;11.00;99.90;;;;;;7396918;19;19915;-76
2024/01/19 08:10:43;;;;;;;13.25;2.28;;;10.80;99.90;;;;;;7401013;19;19907;-76
2024/01/19 08:13:12;;;;;;;16.83;2.13;;;10.80;99.90;;;;;;7322076;19;20654;-75
2024/01/19 08:15:38;;;;;;;21.95;2.63;;;10.80;99.90;;;;;;7405273;19;19934;-75
2024/01/19 08:18:04;;;;;;;13.77;1.85;;;10.70;99.90;;;;;;7402065;19;20382;-75
2024/01/19 08:20:31;;;;;;;10.27;1.63;;;10.70;99.90;;;;;;7386541;19;19919;-74
2024/01/19 08:22:58;;;;;;;10.25;1.95;;;10.60;99.90;;;;;;7409510;19;20306;-76
2024/01/19 08:25:24;;;;;;;15.10;3.00;;;10.70;99.90;;;;;;7404464;19;19930;-76
2024/01/19 08:27:49;;;;;;;13.95;2.72;;;10.70;99.90;;;;;;7408122;19;19942;-75
2024/01/19 08:30:16;;;;;;;13.05;2.55;;;10.90;99.90;;;;;;7406385;19;20342;-75
2024/01/19 08:32:42;;;;;;;15.13;2.20;;;10.80;99.90;;;;;;7405396;19;19938;-75
2024/01/19 08:35:08;;;;;;;12.57;2.72;;;10.70;99.90;;;;;;7407576;19;19918;-75
2024/01/19 08:37:36;;;;;;;10.32;1.10;;;10.60;99.90;;;;;;7407138;19;19949;-75
2024/01/19 08:40:02;;;;;;;9.73;1.60;;;10.70;99.90;;;;;;7409990;19;19922;-75
2024/01/19 08:42:28;;;;;;;11.27;1.70;;;10.40;99.90;;;;;;7406246;19;20278;-74
2024/01/19 08:44:53;;;;;;;11.82;3.13;;;10.30;99.90;;;;;;7406767;19;19929;-75
2024/01/19 08:47:19;;;;;;;11.90;1.90;;;10.50;99.90;;;;;;7406973;19;19915;-76
2024/01/19 08:49:46;;;;;;;8.57;1.70;;;10.40;99.90;;;;;;7407443;19;20354;-77
2024/01/19 08:52:12;;;;;;;9.38;2.17;;;10.60;99.90;;;;;;7406736;19;19933;-76
2024/01/19 08:54:38;;;;;;;13.52;2.83;;;10.50;99.90;;;;;;7403596;19;19918;-77
2024/01/19 08:57:04;;;;;;;8.07;1.60;;;10.60;99.90;;;;;;7402433;19;19929;-77
2024/01/19 08:59:31;;;;;;;8.68;1.50;;;10.50;99.90;;;;;;7401981;19;19915;-77
2024/01/19 09:01:57;;;;;;;11.68;2.38;;;10.50;99.90;;;;;;7405852;19;19934;-77
2024/01/19 09:04:24;;;;;;;9.98;2.10;;;10.50;99.90;;;;;;7377807;19;19923;-76
2024/01/19 09:06:51;;;;;;;10.02;1.70;;;10.50;99.90;;;;;;7401346;19;19922;-77
2024/01/19 09:09:17;;;;;;;7.82;1.27;;;10.60;99.90;;;;;;7400886;19;20243;-76
2024/01/19 09:11:43;;;;;;;12.48;1.88;;;10.50;99.90;;;;;;7403182;19;19917;-77
2024/01/19 09:14:10;;;;;;;8.65;2.03;;;10.30;99.90;;;;;;7398253;19;19926;-76
2024/01/19 09:16:36;;;;;;;12.32;2.45;;;10.40;99.90;;;;;;7394519;19;19935;-75
2024/01/19 09:19:03;;;;;;;7.10;1.80;;;10.60;99.90;;;;;;7402291;19;19939;-75
2024/01/19 09:21:29;;;;;;;11.45;1.58;;;10.50;99.90;;;;;;7402882;19;19942;-77
2024/01/19 09:23:54;;;;;;;5.07;1.35;;;10.40;99.90;;;;;;7406231;19;19951;-76
2024/01/19 09:26:21;;;;;;;14.20;1.42;;;10.20;99.90;;;;;;7399476;19;19938;-77
2024/01/19 09:28:48;;;;;;;7.75;1.98;;;10.20;99.90;;;;;;7409794;19;20002;-76
2024/01/19 09:31:14;;;;;;;9.00;1.67;;;10.30;99.90;;;;;;7401469;19;19914;-76
2024/01/19 09:33:44;;;;;;;7.65;1.73;;;10.50;99.90;;;;;;7396326;19;19919;-76
2024/01/19 09:36:10;;;;;;;7.35;1.77;;;10.50;99.90;;;;;;7390388;19;19925;-76
2024/01/19 09:38:37;;;;;;;11.43;1.73;;;10.40;99.90;;;;;;7409003;19;20279;-76
2024/01/19 09:41:25;;;;;;;8.80;1.77;;;10.50;99.90;;;;;;7401808;19;19926;-76
2024/01/19 09:43:55;;;;;;;14.13;2.05;;;10.60;99.90;;;;;;7401479;19;19926;-75
2024/01/19 09:46:30;;;;;;;6.72;1.73;;;10.80;99.90;;;;;;7404988;19;19949;-76
2024/01/19 09:49:38;;;;;;;8.00;1.85;;;10.60;99.90;;;;;;7405847;19;20337;-77
2024/01/19 09:52:50;;;;;;;6.03;1.60;;;10.60;99.90;;;;;;7402523;19;19937;-74
2024/01/19 09:55:16;;;;;;;6.95;2.35;;;10.50;99.90;;;;;;7403660;19;20302;-75
2024/01/19 09:57:49;;;;;;;6.18;0.93;;;10.50;99.90;;;;;;7404933;19;19907;-74
2024/01/19 10:00:17;;;;;;;7.57;1.50;;;10.60;99.90;;;;;;7400572;19;19994;-74
2024/01/19 10:02:51;;;;;;;8.13;1.88;;;10.50;99.90;;;;;;7403032;19;19918;-74
2024/01/19 10:05:18;;;;;;;11.27;2.05;;;10.50;99.90;;;;;;7404760;19;19919;-74
2024/01/19 10:07:46;;;;;;;8.27;1.30;;;10.60;99.90;;;;;;7403393;19;20017;-75
2024/01/19 10:10:12;;;;;;;11.40;1.88;;;10.40;99.90;;;;;;7403087;19;19977;-74
2024/01/19 10:12:39;;;;;;;8.25;1.75;;;10.30;99.90;;;;;;7402775;19;19914;-74
2024/01/19 10:15:10;;;;;;;10.20;1.88;;;10.40;99.90;;;;;;7403464;19;19918;-74
2024/01/19 10:17:36;;;;;;;6.65;1.83;;;10.60;99.90;;;;;;7401153;19;19926;-73
2024/01/19 10:20:02;;;;;;;3.92;1.15;;;10.50;99.90;;;;;;7403380;19;20234;-73
2024/01/19 10:22:29;;;;;;;9.23;1.60;;;10.40;99.90;;;;;;7396537;19;19911;-73
2024/01/19 10:25:08;;;;;;;8.13;1.80;;;10.50;99.90;;;;;;7375732;19;19910;-74
2024/01/19 10:27:48;;;;;;;6.38;1.15;;;10.50;99.90;;;;;;7399140;19;19935;-73
2024/01/19 10:30:21;;;;;;;9.82;1.70;;;10.30;99.90;;;;;;7397435;19;20775;-72
2024/01/19 10:32:48;;;;;;;4.00;1.05;;;10.40;99.90;;;;;;7398783;19;19955;-73
2024/01/19 10:35:21;;;;;;;10.48;2.35;;;10.30;99.90;;;;;;7398197;19;19946;-73
2024/01/19 10:37:47;;;;;;;;;;;10.50;99.90;;;;;;7395832;19;19922;-74
2024/01/19 10:40:14;;;;;;;5.68;1.38;;;10.40;99.90;;;;;;7396744;19;19918;-73
2024/01/19 10:42:41;;;;;;;5.80;1.40;;;10.20;99.90;;;;;;7396571;19;19922;-73
2024/01/19 10:45:14;;;;;;;;;;;10.40;99.90;;;;;;7394703;19;20347;-73
2024/01/19 10:47:45;;;;;;;7.45;1.55;;;10.40;99.90;;;;;;7391325;19;19934;-73
2024/01/19 10:50:14;;;;;;;10.05;1.92;;;10.20;99.90;;;;;;7388963;19;19914;-73
2024/01/19 10:52:40;;;;;;;7.03;1.65;;;10.30;99.90;;;;;;7379614;19;19918;-74
2024/01/19 10:55:06;;;;;;;10.45;3.28;;;10.30;99.90;;;;;;7388382;19;19911;-73
2024/01/19 10:57:32;;;;;;;11.00;3.00;;;10.10;99.90;;;;;;7394913;19;20306;-73
2024/01/19 10:59:58;;;;;;;8.45;2.70;;;10.20;99.90;;;;;;7401656;19;19926;-74
2024/01/19 11:02:24;;;;;;;9.52;2.35;;;10.10;99.90;;;;;;7384829;19;19926;-74
2024/01/19 11:04:51;;;;;;;4.68;1.60;;;10.20;99.90;;;;;;7395213;19;19914;-73
2024/01/19 11:07:17;;;;;;;5.82;1.98;;;10.30;99.90;;;;;;7390327;19;19911;-75
2024/01/19 11:09:43;;;;;;;5.38;1.83;;;10.40;99.90;;;;;;7394413;19;19949;-72
2024/01/19 11:12:11;;;;;;;6.72;1.70;;;10.30;99.90;;;;;;7388395;19;19947;-73
2024/01/19 11:14:40;;;;;;;9.45;1.67;;;10.50;99.90;;;;;;7394639;19;20351;-74
2024/01/19 11:17:07;;;;;;;5.22;1.75;;;10.50;99.90;;;;;;7395357;19;19915;-73
2024/01/19 11:19:36;;;;;;;7.40;1.60;;;10.50;99.90;;;;;;7382172;19;19918;-73
2024/01/19 11:22:03;;;;;;;4.30;1.75;;;10.50;99.90;;;;;;7385697;19;19928;-74
2024/01/19 11:24:34;;;;;;;4.20;1.52;;;10.40;99.90;;;;;;7397968;19;19915;-73
2024/01/19 11:27:22;;;;;;;4.65;1.48;;;10.30;99.90;;;;;;7400087;19;20327;-74
2024/01/19 11:29:53;;;;;;;7.18;1.35;;;10.20;99.90;;;;;;7371644;19;19911;-74
2024/01/19 11:32:19;;;;;;;4.43;1.58;;;10.30;99.90;;;;;;7391613;19;19941;-73
2024/01/19 11:34:48;;;;;;;8.68;2.13;;;10.30;99.90;;;;;;7395333;19;19914;-73
2024/01/19 11:37:39;;;;;;;4.68;1.85;;;10.10;99.90;;;;;;7395225;19;19922;-73
2024/01/19 11:40:05;;;;;;;6.15;1.20;;;10.10;99.90;;;;;;7396688;19;20300;-73
2024/01/19 11:42:34;;;;;;;6.47;1.25;;;10.20;99.90;;;;;;7378006;19;19929;-75
2024/01/19 11:45:00;;;;;;;5.82;1.50;;;10.20;99.90;;;;;;7390774;19;19956;-74
2024/01/19 11:47:35;;;;;;;6.22;1.70;;;10.30;99.90;;;;;;7390944;19;19954;-73
2024/01/19 11:50:02;;;;;;;9.90;4.50;;;10.20;99.90;;;;;;7398261;19;20023;-74
2024/01/19 11:52:35;;;;;;;4.63;1.77;;;10.30;99.90;;;;;;7395542;19;19981;-74
2024/01/19 11:55:27;;;;;;;5.70;1.75;;;10.20;99.90;;;;;;7403738;19;19915;-74
2024/01/19 11:57:54;;;;;;;6.07;2.40;;;10.00;99.90;;;;;;7391131;19;20453;-74
2024/01/19 12:00:20;;;;;;;5.97;1.95;;;9.90;99.90;;;;;;7393982;19;19949;-73
2024/01/19 12:02:47;;;;;;;3.78;1.50;;;10.00;99.90;;;;;;7389990;19;19925;-74
2024/01/19 12:05:18;;;;;;;4.57;1.35;;;10.20;99.90;;;;;;7389448;19;19913;-74
2024/01/19 12:07:44;;;;;;;4.10;1.88;;;10.30;99.90;;;;;;7395874;19;19922;-74
2024/01/19 12:10:12;;;;;;;5.00;1.75;;;10.30;99.90;;;;;;7393934;19;20007;-74
2024/01/19 12:12:39;;;;;;;6.70;1.98;;;10.30;99.90;;;;;;7385681;19;19922;-74
2024/01/19 12:15:07;;;;;;;5.65;2.20;;;10.30;99.90;;;;;;7382845;19;19927;-73
2024/01/19 12:17:40;;;;;;;7.20;3.30;;;10.40;99.90;;;;;;7395499;19;19919;-72
2024/01/19 12:20:09;;;;;;;4.60;2.17;;;10.20;99.90;;;;;;7389950;19;19962;-75
2024/01/19 12:22:36;;;;;;;4.05;1.70;;;10.20;99.90;;;;;;7393014;19;19930;-73
2024/01/19 12:25:23;;;;;;;11.55;5.22;;;10.10;99.90;;;;;;7389410;19;19906;-73
2024/01/19 12:28:00;;;;;;;5.18;1.70;;;10.10;99.90;;;;;;7388070;19;19966;-74
2024/01/19 12:30:34;;;;;;;6.40;2.05;;;9.80;99.90;;;;;;7387182;19;19926;-74
2024/01/19 12:33:35;;;;;;;6.70;2.10;;;10.00;99.90;;;;;;7389896;19;19935;-73
2024/01/19 12:36:06;;;;;;;4.68;1.40;;;9.90;99.90;;;;;;7383536;19;19947;-74
2024/01/19 12:38:33;;;;;;;6.03;2.42;;;10.00;99.90;;;;;;7393412;19;19915;-74
2024/01/19 12:40:59;;;;;;;6.03;2.17;;;10.00;99.90;;;;;;7401125;19;19978;-75
2024/01/19 12:43:29;;;;;;;5.07;1.92;;;10.00;99.90;;;;;;7379828;19;19930;-74
2024/01/19 12:46:05;;;;;;;3.75;1.50;;;10.00;99.90;;;;;;7396720;19;19922;-73